createdAt,value
2023-05-04T00:02:16.686Z,102221.53
2023-05-04T00:04:44.333Z,102219.78
2023-05-04T00:07:12.702Z,102218.91
2023-05-04T00:09:40.361Z,102211.91
2023-05-04T00:12:08.282Z,102211.03
2023-05-04T00:14:37.671Z,102208.41
2023-05-04T00:17:06.637Z,102207.53
2023-05-04T00:19:35.951Z,102191.81
2023-05-04T00:22:03.481Z,102196.19
2023-05-04T00:24:31.103Z,102194.41
2023-05-04T00:26:58.812Z,102199.66
2023-05-04T00:29:26.383Z,102194.41
2023-05-04T00:31:55.494Z,102188.28
2023-05-04T00:34:23.186Z,102184.78
2023-05-04T00:36:50.842Z,102172.53
2023-05-04T00:39:18.457Z,102183.91
2023-05-04T00:41:45.996Z,102184.78
2023-05-04T00:44:14.163Z,102179.53
2023-05-04T00:46:42.124Z,102179.53
2023-05-04T00:49:10.283Z,102170.78
2023-05-04T00:51:38.095Z,102162.91
2023-05-04T00:54:05.635Z,102162.06
2023-05-04T00:56:33.770Z,102164.66
2023-05-04T00:59:01.529Z,102162.91
2023-05-04T01:01:29.923Z,102155.91
2023-05-04T01:03:57.709Z,102158.53
2023-05-04T01:06:38.708Z,102151.53
2023-05-04T01:09:21.851Z,102148.03
2023-05-04T01:12:27.488Z,102141.94
2023-05-04T01:14:56.572Z,102141.91
2023-05-04T01:17:24.260Z,102145.41
2023-05-04T01:19:53.950Z,102140.16
2023-05-04T01:22:22.741Z,102136.66
2023-05-04T01:24:50.995Z,102138.41
2023-05-04T01:27:36.387Z,102141.03
2023-05-04T01:30:20.682Z,102136.59
2023-05-04T01:32:50.698Z,102128.75
2023-05-04T01:35:19.505Z,102133.09
2023-05-04T01:37:47.537Z,102132.22
2023-05-04T01:40:15.669Z,102133.97
2023-05-04T01:42:45.946Z,102139.22
2023-05-04T01:45:13.635Z,102136.56
2023-05-04T01:47:41.265Z,102134.78
2023-05-04T01:50:09.333Z,102134.81
2023-05-04T01:52:36.940Z,102135.66
2023-05-04T01:55:05.163Z,102137.41
2023-05-04T01:57:34.154Z,102137.38
2023-05-04T02:00:02.046Z,102130.41
2023-05-04T02:02:43.825Z,102128.63
2023-05-04T02:05:14.631Z,102124.25
2023-05-04T02:07:42.244Z,102130.34
2023-05-04T02:10:10.161Z,102131.22
2023-05-04T02:12:37.828Z,102126.84
2023-05-04T02:15:06.153Z,102118.09
2023-05-04T02:17:33.907Z,102127.72
2023-05-04T02:20:01.592Z,102126.81
2023-05-04T02:22:29.202Z,102118.06
2023-05-04T02:24:56.796Z,102122.41
2023-05-04T02:27:24.316Z,102121.53
2023-05-04T02:29:51.962Z,102111.03
2023-05-04T02:32:19.499Z,102111.91
2023-05-04T02:34:47.134Z,102111.00
2023-05-04T02:37:14.692Z,102108.38
2023-05-04T02:39:42.433Z,102117.97
2023-05-04T02:42:10.261Z,102116.22
2023-05-04T02:44:37.876Z,102114.44
2023-05-04T02:47:06.246Z,102116.19
2023-05-04T02:49:33.924Z,102110.94
2023-05-04T02:52:01.540Z,102108.31
2023-05-04T02:54:29.189Z,102110.88
2023-05-04T02:56:56.768Z,102110.00
2023-05-04T02:59:24.356Z,102110.00
2023-05-04T03:01:52.211Z,102111.72
2023-05-04T03:04:19.938Z,102108.25
2023-05-04T03:06:47.616Z,102109.06
2023-05-04T03:09:15.204Z,102107.31
2023-05-04T03:11:42.780Z,102102.97
2023-05-04T03:14:10.550Z,102100.34
2023-05-04T03:16:38.123Z,102095.09
2023-05-04T03:19:05.772Z,102100.31
2023-05-04T03:21:33.452Z,102089.84
2023-05-04T03:24:01.097Z,102092.44
2023-05-04T03:26:28.800Z,102090.69
2023-05-04T03:28:56.549Z,102088.94
2023-05-04T03:31:24.245Z,102091.53
2023-05-04T03:33:53.731Z,102080.19
2023-05-04T03:36:22.385Z,102081.06
2023-05-04T03:38:52.382Z,102083.66
2023-05-04T03:41:21.027Z,102081.03
2023-05-04T03:43:48.753Z,102086.25
2023-05-04T03:46:16.820Z,102088.00
2023-05-04T03:48:46.506Z,102083.63
2023-05-04T03:51:16.893Z,102073.13
2023-05-04T03:53:45.075Z,102079.25
2023-05-04T03:56:14.539Z,102081.88
2023-05-04T03:58:42.161Z,102077.47
2023-05-04T04:01:09.763Z,102076.59
2023-05-04T04:03:37.369Z,102080.94
2023-05-04T04:06:08.040Z,102073.97
2023-05-04T04:08:36.138Z,102070.47
2023-05-04T04:11:03.995Z,102062.59
2023-05-04T04:13:31.614Z,102059.13
2023-05-04T04:15:59.362Z,102063.47
2023-05-04T04:18:27.322Z,102069.53
2023-05-04T04:20:54.918Z,102063.47
2023-05-04T04:23:22.462Z,102061.69
2023-05-04T04:25:50.078Z,102062.63
2023-05-04T04:28:17.629Z,102062.63
2023-05-04T04:30:45.218Z,102068.75
2023-05-04T04:33:12.778Z,102067.00
2023-05-04T04:35:41.604Z,102071.41
2023-05-04T04:38:09.362Z,102061.81
2023-05-04T04:40:37.037Z,102060.97
2023-05-04T04:43:04.762Z,102059.22
2023-05-04T04:45:33.786Z,102066.22
2023-05-04T04:48:01.925Z,102058.41
2023-05-04T04:50:30.100Z,102049.72
2023-05-04T04:52:57.709Z,102062.81
2023-05-04T04:55:25.289Z,102056.72
2023-05-04T04:57:52.986Z,102049.75
2023-05-04T05:00:22.533Z,102048.88
2023-05-04T05:02:50.135Z,102050.66
2023-05-04T05:05:18.118Z,102051.53
2023-05-04T05:07:45.825Z,102054.19
2023-05-04T05:10:13.450Z,102066.41
2023-05-04T05:12:41.497Z,102062.09
2023-05-04T05:15:09.718Z,102051.66
2023-05-04T05:17:37.639Z,102055.16
2023-05-04T05:20:11.195Z,102062.16
2023-05-04T05:22:39.929Z,102058.69
2023-05-04T05:25:08.230Z,102053.47
2023-05-04T05:27:36.760Z,102043.88
2023-05-04T05:30:11.556Z,102055.25
2023-05-04T05:32:39.289Z,102048.31
2023-05-04T05:35:07.780Z,102054.41
2023-05-04T05:37:35.445Z,102054.41
2023-05-04T05:40:07.880Z,102055.31
2023-05-04T05:42:35.696Z,102061.44
2023-05-04T05:45:04.570Z,102057.06
2023-05-04T05:47:32.197Z,102057.94
2023-05-04T05:49:59.773Z,102062.34
2023-05-04T05:52:27.331Z,102058.00
2023-05-04T05:54:55.088Z,102053.63
2023-05-04T05:57:22.761Z,102048.38
2023-05-04T05:59:50.492Z,102048.38
2023-05-04T06:02:18.295Z,102044.88
2023-05-04T06:04:46.070Z,102044.84
2023-05-04T06:07:16.534Z,102050.06
2023-05-04T06:09:44.108Z,102036.06
2023-05-04T06:12:13.597Z,102039.53
2023-05-04T06:14:41.313Z,102038.63
2023-05-04T06:17:09.482Z,102032.47
2023-05-04T06:19:46.405Z,102039.44
2023-05-04T06:22:14.778Z,102031.50
2023-05-04T06:24:42.369Z,102030.56
2023-05-04T06:27:09.950Z,102027.88
2023-05-04T06:29:39.354Z,102023.41
2023-05-04T06:32:09.910Z,102014.56
2023-05-04T06:34:37.651Z,102017.16
2023-05-04T06:37:05.244Z,102022.31
2023-05-04T06:39:33.342Z,102015.22
2023-05-04T06:42:01.640Z,102017.75
2023-05-04T06:44:38.474Z,102003.66
2023-05-04T06:47:09.416Z,102013.22
2023-05-04T06:49:37.031Z,102006.97
2023-05-04T06:52:04.838Z,102001.59
2023-05-04T06:54:32.554Z,102006.66
2023-05-04T06:57:03.316Z,102003.81
2023-05-04T06:59:31.342Z,102005.31
2023-05-04T07:01:58.937Z,101998.91
2023-05-04T07:04:26.758Z,101996.06
2023-05-04T07:06:54.301Z,102002.13
2023-05-04T07:09:22.204Z,101997.47
2023-05-04T07:11:49.810Z,101993.75
2023-05-04T07:14:17.419Z,101983.84
2023-05-04T07:16:45.173Z,101988.84
2023-05-04T07:19:12.886Z,101985.13
2023-05-04T07:21:40.553Z,101986.66
2023-05-04T07:24:08.390Z,101979.34
2023-05-04T07:26:35.986Z,101976.41
2023-05-04T07:29:03.511Z,101972.63
2023-05-04T07:31:31.124Z,101970.59
2023-05-04T07:33:58.724Z,101964.22
2023-05-04T07:36:27.832Z,101953.38
2023-05-04T07:38:55.552Z,101961.91
2023-05-04T07:41:23.085Z,101958.09
2023-05-04T07:43:50.712Z,101961.13
2023-05-04T07:46:18.364Z,101952.72
2023-05-04T07:48:46.025Z,101955.88
2023-05-04T07:51:15.062Z,101951.81
2023-05-04T07:53:43.631Z,101961.81
2023-05-04T07:56:12.896Z,101954.13
2023-05-04T07:58:40.585Z,101958.91
2023-05-04T08:01:08.413Z,101954.22
2023-05-04T08:03:36.434Z,101949.25
2023-05-04T08:06:04.138Z,101950.63
2023-05-04T08:08:31.701Z,101949.22
2023-05-04T08:11:12.030Z,101933.91
2023-05-04T08:14:28.531Z,101932.75
2023-05-04T08:16:56.091Z,101936.66
2023-05-04T08:19:23.801Z,101930.91
2023-05-04T08:21:51.396Z,101928.84
2023-05-04T08:24:19.005Z,101935.84
2023-05-04T08:26:52.580Z,101936.47
2023-05-04T08:29:31.878Z,101930.75
2023-05-04T08:31:59.931Z,101931.06
2023-05-04T08:34:27.629Z,101926.91
2023-05-04T08:36:55.185Z,101929.75
2023-05-04T08:39:22.784Z,101927.44
2023-05-04T08:41:50.417Z,101927.09
2023-05-04T08:44:21.147Z,101925.88
2023-05-04T08:46:53.917Z,101917.22
2023-05-04T08:49:23.811Z,101908.78
2023-05-04T08:51:52.108Z,101907.50
2023-05-04T08:54:22.233Z,101902.50
2023-05-04T08:56:52.558Z,101909.06
2023-05-04T08:59:23.410Z,101899.47
2023-05-04T09:01:58.732Z,101902.47
2023-05-04T09:04:29.279Z,101900.41
2023-05-04T09:06:58.520Z,101894.75
2023-05-04T09:09:29.293Z,101891.53
2023-05-04T09:11:59.002Z,101889.06
2023-05-04T09:14:34.064Z,101885.69
2023-05-04T09:17:03.598Z,101876.44
2023-05-04T09:19:34.601Z,101877.00
2023-05-04T09:22:14.702Z,101874.78
2023-05-04T09:24:42.682Z,101871.06
2023-05-04T09:27:12.636Z,101865.00
2023-05-04T09:29:42.452Z,101865.69
2023-05-04T09:32:16.453Z,101861.47
2023-05-04T09:34:48.603Z,101859.09
2023-05-04T09:37:16.377Z,101858.78
2023-05-04T09:39:59.701Z,101856.75
2023-05-04T09:42:28.619Z,101854.63
2023-05-04T09:45:00.873Z,101850.53
2023-05-04T09:47:39.856Z,101852.72
2023-05-04T09:50:17.598Z,101860.56
2023-05-04T09:52:47.288Z,101851.59
2023-05-04T09:55:18.070Z,101846.56
2023-05-04T09:57:47.443Z,101849.38
2023-05-04T10:00:17.523Z,101848.72
2023-05-04T10:02:46.899Z,101837.72
2023-05-04T10:05:17.965Z,101835.16
2023-05-04T10:07:46.384Z,101830.75
2023-05-04T10:10:15.452Z,101823.09
2023-05-04T10:12:45.307Z,101821.00
2023-05-04T10:15:16.027Z,101833.78
2023-05-04T10:18:08.000Z,101818.94
2023-05-04T10:20:59.224Z,101818.66
2023-05-04T10:23:54.609Z,101813.72
2023-05-04T10:26:41.926Z,101799.66
2023-05-04T10:29:24.087Z,101816.69
2023-05-04T10:31:53.486Z,101796.19
2023-05-04T10:34:33.565Z,101795.88
2023-05-04T10:37:04.147Z,101790.16
2023-05-04T10:39:34.247Z,101789.78
2023-05-04T10:42:05.334Z,101782.16
2023-05-04T10:44:50.305Z,101770.88
2023-05-04T10:47:33.392Z,101760.75
2023-05-04T10:50:09.062Z,101764.31
2023-05-04T10:52:52.016Z,101749.28
2023-05-04T10:55:21.598Z,101753.38
2023-05-04T10:57:57.864Z,101750.59
2023-05-04T11:00:42.004Z,101743.59
2023-05-04T11:03:11.896Z,101731.94
2023-05-04T11:05:50.916Z,101732.78
2023-05-04T11:08:24.417Z,101726.47
2023-05-04T11:11:03.796Z,101719.53
2023-05-04T11:13:35.501Z,101697.59
2023-05-04T11:16:03.101Z,101702.28
2023-05-04T11:18:34.370Z,101694.56
2023-05-04T11:21:02.511Z,101700.59
2023-05-04T11:23:30.925Z,101686.03
2023-05-04T11:25:58.644Z,101687.53
2023-05-04T11:28:38.408Z,101685.63
2023-05-04T11:31:17.087Z,101677.75
2023-05-04T11:33:54.708Z,101672.75
2023-05-04T11:36:23.050Z,101658.72
2023-05-04T11:38:50.961Z,101667.22
2023-05-04T11:41:18.618Z,101666.09
2023-05-04T11:43:47.292Z,101656.97
2023-05-04T11:46:16.582Z,101666.41
2023-05-04T11:48:45.120Z,101660.31
2023-05-04T11:51:13.271Z,101660.97
2023-05-04T11:53:41.876Z,101651.97
2023-05-04T11:56:10.055Z,101646.91
2023-05-04T11:58:37.883Z,101646.06
2023-05-04T12:01:05.983Z,101656.47
2023-05-04T12:03:50.970Z,101654.66
2023-05-04T12:06:33.721Z,101649.41
2023-05-04T12:09:04.642Z,101645.66
2023-05-04T12:11:32.806Z,101649.00
2023-05-04T12:14:14.000Z,101643.91
2023-05-04T12:16:42.936Z,101641.31
2023-05-04T12:19:15.613Z,101629.47
2023-05-04T12:22:09.889Z,101640.91
2023-05-04T12:24:39.748Z,101633.69
2023-05-04T12:27:13.997Z,101624.88
2023-05-04T12:29:41.646Z,101621.34
2023-05-04T12:32:09.294Z,101612.63
2023-05-04T12:34:38.546Z,101622.69
2023-05-04T12:37:06.200Z,101622.03
2023-05-04T12:39:34.408Z,101614.69
2023-05-04T12:42:02.026Z,101606.28
2023-05-04T12:44:30.751Z,101609.25
2023-05-04T12:46:58.352Z,101601.06
2023-05-04T12:49:25.916Z,101607.50
2023-05-04T12:51:53.484Z,101600.06
2023-05-04T12:54:21.035Z,101597.66
2023-05-04T12:56:48.569Z,101588.50
2023-05-04T12:59:16.139Z,101590.75
2023-05-04T13:01:43.761Z,101590.28
2023-05-04T13:04:11.338Z,101580.47
2023-05-04T13:06:39.045Z,101576.63
2023-05-04T13:09:06.637Z,101563.91
2023-05-04T13:11:35.008Z,101562.91
2023-05-04T13:14:02.745Z,101568.31
2023-05-04T13:16:30.819Z,101553.47
2023-05-04T13:18:58.719Z,101548.19
2023-05-04T13:21:26.284Z,101546.63
2023-05-04T13:23:53.840Z,101538.50
2023-05-04T13:26:21.672Z,101540.56
2023-05-04T13:28:51.325Z,101531.72
2023-05-04T13:31:19.203Z,101528.50
2023-05-04T13:33:46.972Z,101537.72
2023-05-04T13:36:14.680Z,101532.44
2023-05-04T13:38:42.256Z,101529.63
2023-05-04T13:41:09.788Z,101512.72
2023-05-04T13:43:37.505Z,101512.22
2023-05-04T13:46:06.402Z,101512.34
2023-05-04T13:48:34.172Z,101509.13
2023-05-04T13:51:04.044Z,101504.97
2023-05-04T13:53:31.658Z,101497.84
2023-05-04T13:55:59.186Z,101499.81
2023-05-04T13:58:26.814Z,101489.69
2023-05-04T14:00:56.217Z,101488.59
2023-05-04T14:03:23.805Z,101471.72
2023-05-04T14:05:51.893Z,101472.91
2023-05-04T14:08:19.403Z,101473.25
2023-05-04T14:10:46.971Z,101469.81
2023-05-04T14:13:14.784Z,101469.09
2023-05-04T14:15:42.557Z,101466.00
2023-05-04T14:18:10.179Z,101464.56
2023-05-04T14:20:37.779Z,101446.72
2023-05-04T14:23:05.313Z,101443.44
2023-05-04T14:25:32.900Z,101437.44
2023-05-04T14:28:00.790Z,101439.41
2023-05-04T14:30:28.402Z,101428.31
2023-05-04T14:32:56.416Z,101421.19
2023-05-04T14:35:24.611Z,101424.38
2023-05-04T14:37:52.271Z,101421.28
2023-05-04T14:40:20.454Z,101428.97
2023-05-04T14:42:48.153Z,101423.47
2023-05-04T14:45:16.063Z,101421.28
2023-05-04T14:47:43.713Z,101418.38
2023-05-04T14:50:12.175Z,101416.06
2023-05-04T14:52:40.009Z,101413.22
2023-05-04T14:55:08.779Z,101410.63
2023-05-04T14:57:36.705Z,101413.53
2023-05-04T15:00:09.440Z,101411.63
2023-05-04T15:02:40.652Z,101411.91
2023-05-04T15:05:12.321Z,101409.00
2023-05-04T15:07:39.958Z,101405.25
2023-05-04T15:10:09.576Z,101406.88
2023-05-04T15:12:37.891Z,101406.53
2023-05-04T15:15:06.450Z,101405.13
2023-05-04T15:17:34.115Z,101408.25
2023-05-04T15:20:02.393Z,101400.75
2023-05-04T15:22:29.917Z,101402.72
2023-05-04T15:24:57.861Z,101404.25
2023-05-04T15:27:25.491Z,101402.44
2023-05-04T15:29:58.871Z,101399.28
2023-05-04T15:32:27.349Z,101396.53
2023-05-04T15:35:04.561Z,101400.91
2023-05-04T15:37:33.970Z,101402.09
2023-05-04T15:40:02.838Z,101396.16
2023-05-04T15:42:30.693Z,101389.59
2023-05-04T15:44:58.225Z,101379.41
2023-05-04T15:47:25.991Z,101381.91
2023-05-04T15:49:53.559Z,101374.22
2023-05-04T15:52:21.251Z,101371.56
2023-05-04T15:54:48.771Z,101370.28
2023-05-04T15:57:16.768Z,101362.09
2023-05-04T15:59:44.452Z,101363.34
2023-05-04T16:02:12.184Z,101365.78
2023-05-04T16:04:39.713Z,101356.88
2023-05-04T16:07:07.229Z,101366.41
2023-05-04T16:09:34.800Z,101367.38
2023-05-04T16:12:05.166Z,101363.63
2023-05-04T16:14:32.851Z,101359.06
2023-05-04T16:17:01.488Z,101363.72
2023-05-04T16:19:29.325Z,101359.91
2023-05-04T16:21:56.914Z,101361.22
2023-05-04T16:24:24.821Z,101363.53
2023-05-04T16:26:55.222Z,101356.16
2023-05-04T16:29:23.892Z,101355.06
2023-05-04T16:31:51.477Z,101351.84
2023-05-04T16:34:27.583Z,101354.34
2023-05-04T16:36:55.247Z,101350.41
2023-05-04T16:39:34.069Z,101345.53
2023-05-04T16:42:02.261Z,101339.22
2023-05-04T16:44:33.682Z,101339.09
2023-05-04T16:47:01.405Z,101328.44
2023-05-04T16:49:29.858Z,101327.00
2023-05-04T16:51:57.462Z,101328.50
2023-05-04T16:54:25.051Z,101319.47
2023-05-04T16:56:52.740Z,101324.19
2023-05-04T16:59:34.404Z,101314.22
2023-05-04T17:02:02.628Z,101317.47
2023-05-04T17:04:39.926Z,101322.59
2023-05-04T17:07:16.466Z,101316.75
2023-05-04T17:10:02.455Z,101315.84
2023-05-04T17:12:47.615Z,101314.09
2023-05-04T17:15:41.307Z,101321.28
2023-05-04T17:18:09.000Z,101317.09
2023-05-04T17:20:36.691Z,101327.59
2023-05-04T17:23:04.810Z,101322.56
2023-05-04T17:25:33.935Z,101315.59
2023-05-04T17:28:01.529Z,101320.25
2023-05-04T17:30:29.202Z,101315.13
2023-05-04T17:32:57.421Z,101319.28
2023-05-04T17:35:26.619Z,101317.50
2023-05-04T17:37:58.806Z,101320.66
2023-05-04T17:40:29.578Z,101319.06
2023-05-04T17:42:57.428Z,101317.44
2023-05-04T17:45:25.631Z,101322.50
2023-05-04T17:47:53.846Z,101320.44
2023-05-04T17:50:22.694Z,101319.88
2023-05-04T17:52:57.069Z,101323.41
2023-05-04T17:55:25.025Z,101321.84
2023-05-04T17:57:54.266Z,101313.69
2023-05-04T18:00:22.260Z,101320.31
2023-05-04T18:02:49.914Z,101314.44
2023-05-04T18:05:17.796Z,101312.97
2023-05-04T18:07:45.305Z,101312.66
2023-05-04T18:10:13.048Z,101317.94
2023-05-04T18:12:41.988Z,101308.56
2023-05-04T18:15:10.198Z,101317.22
2023-05-04T18:17:38.195Z,101323.84
2023-05-04T18:20:10.615Z,101318.88
2023-05-04T18:22:38.789Z,101319.25
2023-05-04T18:25:07.295Z,101323.13
2023-05-04T18:27:35.896Z,101320.53
2023-05-04T18:30:05.767Z,101332.25
2023-05-04T18:32:34.072Z,101328.09
2023-05-04T18:35:04.926Z,101335.47
2023-05-04T18:37:32.780Z,101343.13
2023-05-04T18:40:00.415Z,101340.59
2023-05-04T18:42:28.467Z,101340.91
2023-05-04T18:44:56.237Z,101340.22
2023-05-04T18:47:24.207Z,101336.81
2023-05-04T18:49:54.420Z,101335.25
2023-05-04T18:52:22.270Z,101336.31
2023-05-04T18:54:49.908Z,101335.72
2023-05-04T18:57:17.772Z,101338.75
2023-05-04T18:59:45.458Z,101340.78
2023-05-04T19:02:13.067Z,101340.09
2023-05-04T19:04:40.840Z,101336.53
2023-05-04T19:07:09.912Z,101348.31
2023-05-04T19:09:37.703Z,101346.56
2023-05-04T19:12:05.631Z,101343.88
2023-05-04T19:14:33.594Z,101351.94
2023-05-04T19:17:02.265Z,101342.97
2023-05-04T19:19:30.500Z,101342.06
2023-05-04T19:21:58.592Z,101337.50
2023-05-04T19:24:26.225Z,101344.72
2023-05-04T19:26:54.007Z,101343.84
2023-05-04T19:29:21.850Z,101339.38
2023-05-04T19:31:49.558Z,101344.78
2023-05-04T19:34:17.860Z,101347.81
2023-05-04T19:36:45.571Z,101347.31
2023-05-04T19:39:13.367Z,101345.53
2023-05-04T19:41:41.024Z,101349.91
2023-05-04T19:44:10.116Z,101347.16
2023-05-04T19:46:38.123Z,101341.56
2023-05-04T19:49:05.914Z,101340.22
2023-05-04T19:51:33.880Z,101345.13
2023-05-04T19:54:01.524Z,101342.69
2023-05-04T19:56:29.132Z,101346.69
2023-05-04T19:58:56.796Z,101349.78
2023-05-04T20:01:24.665Z,101341.25
2023-05-04T20:03:52.744Z,101340.66
2023-05-04T20:06:20.273Z,101340.22
2023-05-04T20:08:47.936Z,101342.38
2023-05-04T20:11:15.713Z,101336.53
2023-05-04T20:13:43.309Z,101339.53
2023-05-04T20:16:11.171Z,101342.50
2023-05-04T20:18:39.060Z,101337.50
2023-05-04T20:21:06.925Z,101339.72
2023-05-04T20:23:34.638Z,101333.75
2023-05-04T20:26:04.619Z,101327.97
2023-05-04T20:28:33.644Z,101327.44
2023-05-04T20:31:01.471Z,101327.78
2023-05-04T20:33:29.004Z,101327.25
2023-05-04T20:35:56.648Z,101322.25
2023-05-04T20:38:24.386Z,101329.59
2023-05-04T20:40:52.591Z,101323.66
2023-05-04T20:43:20.834Z,101320.38
2023-05-04T20:45:48.411Z,101312.69
2023-05-04T20:48:16.379Z,101310.28
2023-05-04T20:50:43.963Z,101296.38
2023-05-04T20:53:11.504Z,101305.53
2023-05-04T20:55:40.504Z,101311.94
2023-05-04T20:58:08.060Z,101299.69
2023-05-04T21:00:36.274Z,101299.84
2023-05-04T21:03:03.956Z,101300.00
2023-05-04T21:05:31.639Z,101300.16
2023-05-04T21:07:59.284Z,101302.13
2023-05-04T21:10:26.873Z,101302.31
2023-05-04T21:12:54.453Z,101295.38
2023-05-04T21:15:22.130Z,101298.19
2023-05-04T21:17:53.221Z,101296.63
2023-05-04T21:20:21.075Z,101286.13
2023-05-04T21:22:48.727Z,101281.91
2023-05-04T21:25:17.351Z,101286.50
2023-05-04T21:27:44.901Z,101282.22
2023-05-04T21:30:12.673Z,101291.19
2023-05-04T21:32:40.285Z,101279.91
2023-05-04T21:35:08.484Z,101282.69
2023-05-04T21:37:36.354Z,101287.22
2023-05-04T21:40:04.463Z,101287.50
2023-05-04T21:42:32.373Z,101286.91
2023-05-04T21:45:02.977Z,101282.63
2023-05-04T21:47:30.859Z,101288.94
2023-05-04T21:49:58.456Z,101286.44
2023-05-04T21:52:26.291Z,101280.25
2023-05-04T21:54:53.854Z,101282.91
2023-05-04T21:57:21.538Z,101280.31
2023-05-04T21:59:49.812Z,101278.69
2023-05-04T22:02:17.673Z,101273.44
2023-05-04T22:04:45.658Z,101270.00
2023-05-04T22:07:13.356Z,101266.41
2023-05-04T22:09:41.112Z,101269.84
2023-05-04T22:12:08.794Z,101277.66
2023-05-04T22:14:36.402Z,101280.31
2023-05-04T22:17:04.273Z,101275.00
2023-05-04T22:19:31.984Z,101265.25
2023-05-04T22:21:59.587Z,101274.16
2023-05-04T22:24:27.299Z,101285.63
2023-05-04T22:26:54.978Z,101276.03
2023-05-04T22:29:22.685Z,101279.63
2023-05-04T22:31:50.366Z,101276.19
2023-05-04T22:34:18.134Z,101268.13
2023-05-04T22:36:46.435Z,101275.25
2023-05-04T22:39:14.699Z,101274.44
2023-05-04T22:41:42.401Z,101272.88
2023-05-04T22:44:10.087Z,101264.13
2023-05-04T22:46:37.956Z,101264.28
2023-05-04T22:49:05.719Z,101265.25
2023-05-04T22:51:33.416Z,101267.22
2023-05-04T22:54:00.985Z,101267.38
2023-05-04T22:56:28.585Z,101270.19
2023-05-04T22:58:56.578Z,101273.94
2023-05-04T23:01:24.260Z,101276.72
2023-05-04T23:03:52.260Z,101277.72
2023-05-04T23:06:20.035Z,101272.56
2023-05-04T23:08:47.779Z,101283.25
2023-05-04T23:11:20.681Z,101291.34
2023-05-04T23:13:48.462Z,101287.22
2023-05-04T23:16:16.305Z,101298.81
2023-05-04T23:18:44.278Z,101295.34
2023-05-04T23:21:11.879Z,101301.63
2023-05-04T23:23:39.671Z,101299.97
2023-05-04T23:26:07.719Z,101300.03
2023-05-04T23:28:35.499Z,101297.38
2023-05-04T23:31:03.959Z,101303.69
2023-05-04T23:33:31.558Z,101299.28
2023-05-04T23:35:59.085Z,101291.50
2023-05-04T23:38:27.018Z,101298.56
2023-05-04T23:40:54.877Z,101303.03
2023-05-04T23:43:23.596Z,101306.53
2023-05-04T23:46:03.011Z,101307.25
2023-05-04T23:48:32.296Z,101304.53
2023-05-04T23:51:04.005Z,101299.88
2023-05-04T23:53:32.505Z,101306.78
2023-05-04T23:56:04.023Z,101313.75
2023-05-04T23:58:34.048Z,101312.75
